Logo AVAMET
Benvolgut visitant, si us plau, ingressa Recuperar contrasenya

Gandia Roís de Corella

Dades diàries. Acumulats / Últims 30 dies disponibles

Data Temperatura (°C) Humitat rel. (%) Pressió rel. (hPa) Vent (km/h) Precipitació
Mínima Mitjana Màxima Amplitud
tèrmica
Mínima Mitjana Màxima Mínima Mitjana Màxima Predom. Mitjana Ràfega
màxima
Total
(mm)
Índex-n
Mínima Mitjana Màxima Mínima Mitjana Màxima n
0 a 1
P0 max
mm 5'
Dades mensuals acumulades fins l'últim dia disponible
11/2019 6,6 12,5 22,1 16,0 16,3 20,2 27,8 21,2 26 54 94 1.000 1.011 1.021   6,7 51,5 4,4
Dades anuals acumulades fins l'últim dia disponible
2019 -0,2 14,4 27,6 19,4 12,6 24,8 40,0 40,2 14 66 97 993 1.017 1.036   3,5 74,0 508,8
Últims 30 dies disponibles
21-11-2019 7,2     12,8     18,4 11,2 52 73 94 1.008 1.009 1.011 OSO 1,6 17,7 0,0
20-11-2019 7,1     11,8     17,6 10,5 42 65 90 1.009 1.012 1.015 SSO 1,6 19,3 0,4
19-11-2019 6,6     11,4     17,3 10,7 33 54 72 1.015 1.016 1.018 SO 3,8 30,6 0,0
18-11-2019 6,6     12,3     16,3 9,7 48 66 81 1.007 1.011 1.017 SO 4,4 35,4 1,0
17-11-2019 9,3     13,1     17,6 8,3 40 52 81 1.010 1.013 1.015 O 12,3 38,6 0,6
16-11-2019 8,9     12,4     16,7 7,8 37 49 61 1.007 1.011 1.015 OSO 5,5 32,2 0,0
15-11-2019 9,7     12,8     16,3 6,6 38 51 63 1.001 1.004 1.007 OSO 7,0 49,9 0,0
14-11-2019 11,7     14,3     17,9 6,2 47 59 80 1.000 1.003 1.009 SSO 5,6 51,5 0,0
13-11-2019 10,7     15,4     20,6 9,9 45 70 91 1.005 1.008 1.012 SO 4,5 37,0 2,4 0,20
12-11-2019 12,0     15,2     21,1 9,1 31 44 59 1.009 1.012 1.014 OSO 6,3 35,4 0,0
11-11-2019 10,7     14,1     18,2 7,5 39 47 55 1.011 1.013 1.015 O 7,9 40,2 0,0
10-11-2019 11,7     14,3     17,3 5,6 38 50 68 1.011 1.012 1.014 OSO 8,8 40,2 0,0
09-11-2019 12,7     15,5     19,4 6,7 30 44 65 1.013 1.017 1.020 O 9,4 38,6 0,0
08-11-2019 11,8     14,5     17,8 6,0 36 44 54 1.010 1.013 1.017 OSO 8,8 45,1 0,0
07-11-2019 14,8     17,5     22,3 7,5 26 50 61 1.007 1.010 1.014 OSO 7,6 38,6 0,0
06-11-2019 14,9     17,5     22,0 7,1 34 46 55 1.012 1.013 1.015 OSO 8,7 33,8 0,0
05-11-2019 15,9     18,6     21,3 5,4 38 48 60 1.006 1.009 1.013 OSO 7,8 46,7 0,0
04-11-2019 19,2     21,8     25,9 6,7 39 51 62 1.006 1.009 1.012 SSO 7,8 51,5 0,0
03-11-2019 20,1     22,1     25,2 5,1 41 49 58 1.002 1.005 1.011 SO 8,6 49,9 0,0
02-11-2019 22,1     23,9     27,8 5,7 40 53 64 1.005 1.009 1.014 SO 5,0 38,6 0,0
01-11-2019 19,4     23,9     27,5 8,1 50 60 71 1.014 1.017 1.021 OSO 7,0 33,8 0,0
31-10-2019 19,6     23,7     28,3 8,7 45 58 73 1.019 1.020 1.021 OSO 6,4 32,2 0,0
30-10-2019 13,5     19,6     24,8 11,3 51 74 91 1.019 1.020 1.022 SSO 1,6 22,5 0,0
29-10-2019 13,6     18,0     24,2 10,6 59 84 95 1.015 1.017 1.020 SSO 0,9 11,3 0,2
28-10-2019 13,3     17,1     22,6 9,3 63 86 95 1.016 1.018 1.021 SO 0,5 8,0 0,2
27-10-2019 13,4     17,6     23,1 9,7 65 84 94 1.020 1.022 1.023 SSO 1,1 14,5 0,2
26-10-2019 11,1     16,7     22,8 11,7 61 80 92 1.020 1.021 1.023 SSO 1,1 12,9 0,0
25-10-2019 13,9     19,2     24,3 10,4 43 59 84 1.021 1.022 1.023 SSO 3,7 27,4 0,0
24-10-2019 14,1     17,8     22,4 8,3 42 56 67 1.012 1.016 1.022 O 8,2 33,8 0,0
23-10-2019 13,7     16,1     20,4 6,7 43 61 74 1.006 1.008 1.012 OSO 6,9 30,6 0,0
Últims 13 mesos disponibles
10/2019 11,1 15,8 19,6 20,4 16,6 25,7 32,9 21,8 44 70 86 1.008 1.017 1.022 SSO 2,7 40,2 57,8
09/2019 14,9 19,8 22,8 24,0 23,8 28,6 36,1 21,2 45 76 91 1.010 1.018 1.024 SSO 3,1 46,7 100,4
08/2019 18,5 22,1 27,6 27,1 28,1 32,6 40,0 21,5 48 71 81 1.010 1.016 1.020 S 2,8 41,8 50,2
07/2019 19,9 22,4 26,3 27,5 29,2 32,5 38,3 18,4 43 67 78 1.006 1.014 1.021 SSE 3,3 38,6 1,0
06/2019 12,4 17,1 22,2 23,3 21,9 28,9 35,9 23,5 34 65 80 1.009 1.015 1.022 S 3,1 45,1 0,0
05/2019 8,7 14,1 22,8 19,5 19,8 25,2 32,3 23,6 45 66 81 1.005 1.015 1.024 SSE 3,2 43,5 7,8
04/2019 8,3 11,6 15,1 16,1 14,5 21,0 29,9 21,6 38 66 95 1.000 1.013 1.025 SSO 4,6 53,1 234,0
03/2019 5,3 8,3 15,0 14,4 14,1 20,8 29,1 23,8 36 61 92 1.010 1.023 1.030 S 3,0 53,1 52,4
02/2019 4,2 6,5 11,6 12,0 14,1 18,3 24,1 19,9 32 65 83 995 1.025 1.034 SO 3,1 74,0 0,4
01/2019 -0,2 6,6 13,6 11,4 12,6 17,5 21,5 21,7 38 60 84 1.002 1.019 1.031 SO 4,1 57,9 0,4
12/2018 4,1 7,8 13,7 12,4 14,9 18,6 22,2 18,1 53 74 91 1.009 1.026 1.031 SO 1,4 53,1 22,8
Tots els anys disponibles
Temperatura (°C)
Humitat relativa (%)
Pressió (hPa)
Precipitació (mm)
Nota sobre les dades: s'avisa a l'usuari de la provisionalitat i no oficialitat d'aquestes dades
Logo AVAMET blanc
Web allotjada a Sollutia
Llicència de Creative CommonsLa web d'AVAMET i els seus continguts estan subjectes a una llicència de
Reconeixement - No Comercial - Compartir igual
Últimes estacions: Faura (Inforatge), Benifairó de les Valls (Inforatge), Xàbia - Les Valls (Soci), Xàbia - Alt de la Granadella (Soci), Villena - Sierra de Salinas (Soci), Sueca - Centre (Inforatge) - - -